createdAt,value
2022-11-08T00:00:45.133Z,76.69
2022-11-08T00:03:13.172Z,76.65
2022-11-08T00:06:01.470Z,76.76
2022-11-08T00:08:48.331Z,76.72
2022-11-08T00:11:35.218Z,76.77
2022-11-08T00:14:03.796Z,76.68
2022-11-08T00:16:31.536Z,76.67
2022-11-08T00:18:59.782Z,76.69
2022-11-08T00:21:27.525Z,76.65
2022-11-08T00:23:55.574Z,76.67
2022-11-08T00:26:23.382Z,76.67
2022-11-08T00:28:52.787Z,76.74
2022-11-08T00:31:20.488Z,76.68
2022-11-08T00:33:48.428Z,76.76
2022-11-08T00:36:16.443Z,76.70
2022-11-08T00:38:44.979Z,76.65
2022-11-08T00:41:14.264Z,76.82
2022-11-08T00:43:44.335Z,76.63
2022-11-08T00:46:14.383Z,76.74
2022-11-08T00:48:42.200Z,76.65
2022-11-08T00:51:12.996Z,76.66
2022-11-08T00:53:43.091Z,76.76
2022-11-08T00:56:14.056Z,76.65
2022-11-08T00:58:42.069Z,76.73
2022-11-08T01:01:17.793Z,76.67
2022-11-08T01:03:48.620Z,76.76
2022-11-08T01:06:19.429Z,76.70
2022-11-08T01:08:49.892Z,76.65
2022-11-08T01:11:21.761Z,76.65
2022-11-08T01:13:55.769Z,76.66
2022-11-08T01:16:26.997Z,76.64
2022-11-08T01:18:58.476Z,76.60
2022-11-08T01:21:28.779Z,76.67
2022-11-08T01:23:58.801Z,76.68
2022-11-08T01:26:30.346Z,76.69
2022-11-08T01:29:00.600Z,76.52
2022-11-08T01:31:30.864Z,76.65
2022-11-08T01:34:01.412Z,76.50
2022-11-08T01:36:30.397Z,76.70
2022-11-08T01:38:58.416Z,76.50
2022-11-08T01:41:29.137Z,76.60
2022-11-08T01:44:02.680Z,76.74
2022-11-08T01:46:33.594Z,76.62
2022-11-08T01:49:25.158Z,76.74
2022-11-08T01:52:03.061Z,76.67
2022-11-08T01:54:38.038Z,76.58
2022-11-08T01:57:15.076Z,76.67
2022-11-08T01:59:47.879Z,76.64
2022-11-08T02:02:18.058Z,76.71
2022-11-08T02:04:46.051Z,76.68
2022-11-08T02:07:17.676Z,76.79
2022-11-08T02:09:48.819Z,76.84
2022-11-08T02:12:21.748Z,76.69
2022-11-08T02:14:49.708Z,76.72
2022-11-08T02:17:19.712Z,76.73
2022-11-08T02:19:51.199Z,76.73
2022-11-08T02:22:28.995Z,76.68
2022-11-08T02:25:00.956Z,76.58
2022-11-08T02:27:28.718Z,76.67
2022-11-08T02:29:58.807Z,76.68
2022-11-08T02:32:26.598Z,76.69
2022-11-08T02:35:00.581Z,76.73
2022-11-08T02:37:30.700Z,76.72
2022-11-08T02:39:58.700Z,76.69
2022-11-08T02:42:26.665Z,76.71
2022-11-08T02:44:54.401Z,76.61
2022-11-08T02:47:24.874Z,76.60
2022-11-08T02:49:52.725Z,76.65
2022-11-08T02:52:20.680Z,76.56
2022-11-08T02:54:48.649Z,76.66
2022-11-08T02:57:16.357Z,76.64
2022-11-08T02:59:44.310Z,76.57
2022-11-08T03:02:12.382Z,76.50
2022-11-08T03:04:41.847Z,76.50
2022-11-08T03:07:11.853Z,76.71
2022-11-08T03:09:39.760Z,76.50
2022-11-08T03:12:07.805Z,76.51
2022-11-08T03:14:35.810Z,76.53
2022-11-08T03:17:06.913Z,76.50
2022-11-08T03:19:37.024Z,76.46
2022-11-08T03:22:04.994Z,76.56
2022-11-08T03:24:36.127Z,76.51
2022-11-08T03:27:06.654Z,76.42
2022-11-08T03:29:34.387Z,76.36
2022-11-08T03:32:02.336Z,76.67
2022-11-08T03:34:30.293Z,76.56
2022-11-08T03:36:59.821Z,76.82
2022-11-08T03:39:27.807Z,76.76
2022-11-08T03:41:55.519Z,76.73
2022-11-08T03:44:23.453Z,76.62
2022-11-08T03:46:51.156Z,76.61
2022-11-08T03:49:18.859Z,76.66
2022-11-08T03:51:49.255Z,76.63
2022-11-08T03:54:16.991Z,76.75
2022-11-08T03:56:46.878Z,76.60
2022-11-08T03:59:14.678Z,76.56
2022-11-08T04:01:44.972Z,76.65
2022-11-08T04:04:13.009Z,76.45
2022-11-08T04:06:40.734Z,76.53
2022-11-08T04:09:08.699Z,76.55
2022-11-08T04:11:55.086Z,76.70
2022-11-08T04:14:41.636Z,76.72
2022-11-08T04:17:09.314Z,76.89
2022-11-08T04:19:55.597Z,76.73
2022-11-08T04:22:23.349Z,76.90
2022-11-08T04:24:51.167Z,76.79
2022-11-08T04:27:19.033Z,76.53
2022-11-08T04:29:46.702Z,76.76
2022-11-08T04:32:14.683Z,76.71
2022-11-08T04:34:43.331Z,76.88
2022-11-08T04:37:13.159Z,76.84
2022-11-08T04:39:40.850Z,76.92
2022-11-08T04:42:08.864Z,77.07
2022-11-08T04:44:36.802Z,76.97
2022-11-08T04:47:04.828Z,77.04
2022-11-08T04:49:32.522Z,77.04
2022-11-08T04:52:00.219Z,77.02
2022-11-08T04:54:27.945Z,76.93
2022-11-08T04:56:55.854Z,77.04
2022-11-08T04:59:23.804Z,76.97
2022-11-08T05:01:51.813Z,76.88
2022-11-08T05:04:21.639Z,77.03
2022-11-08T05:06:49.363Z,77.05
2022-11-08T05:09:17.101Z,77.07
2022-11-08T05:11:44.891Z,77.01
2022-11-08T05:14:12.661Z,77.07
2022-11-08T05:16:40.653Z,77.21
2022-11-08T05:19:13.020Z,77.30
2022-11-08T05:22:00.581Z,77.15
2022-11-08T05:24:28.512Z,77.20
2022-11-08T05:26:56.228Z,77.03
2022-11-08T05:29:24.151Z,76.97
2022-11-08T05:31:53.654Z,77.00
2022-11-08T05:34:21.575Z,77.07
2022-11-08T05:36:49.472Z,77.23
2022-11-08T05:39:19.678Z,77.19
2022-11-08T05:41:47.762Z,77.13
2022-11-08T05:44:15.900Z,77.29
2022-11-08T05:46:43.856Z,77.05
2022-11-08T05:49:11.780Z,77.14
2022-11-08T05:51:39.712Z,77.30
2022-11-08T05:54:10.392Z,77.20
2022-11-08T05:56:38.301Z,77.20
2022-11-08T05:59:08.313Z,77.30
2022-11-08T06:01:36.058Z,77.23
2022-11-08T06:04:06.294Z,77.24
2022-11-08T06:06:36.381Z,77.23
2022-11-08T06:09:04.203Z,77.38
2022-11-08T06:11:32.208Z,77.21
2022-11-08T06:14:01.847Z,77.23
2022-11-08T06:16:29.861Z,77.26
2022-11-08T06:18:59.398Z,77.29
2022-11-08T06:21:27.910Z,77.61
2022-11-08T06:23:55.687Z,77.47
2022-11-08T06:26:26.063Z,77.68
2022-11-08T06:28:54.012Z,77.44
2022-11-08T06:31:22.810Z,77.51
2022-11-08T06:33:50.596Z,77.63
2022-11-08T06:36:18.677Z,77.38
2022-11-08T06:38:46.373Z,77.64
2022-11-08T06:41:20.197Z,77.70
2022-11-08T06:43:49.624Z,77.70
2022-11-08T06:46:17.607Z,77.42
2022-11-08T06:48:45.585Z,77.70
2022-11-08T06:51:14.405Z,77.53
2022-11-08T06:53:44.469Z,77.60
2022-11-08T06:56:12.816Z,77.59
2022-11-08T06:58:40.781Z,77.61
2022-11-08T07:01:10.788Z,77.57
2022-11-08T07:03:38.675Z,77.58
2022-11-08T07:06:08.509Z,77.68
2022-11-08T07:08:36.411Z,77.59
2022-11-08T07:11:04.871Z,77.52
2022-11-08T07:13:32.838Z,77.57
2022-11-08T07:16:02.845Z,77.49
2022-11-08T07:18:31.444Z,77.61
2022-11-08T07:21:03.555Z,77.56
2022-11-08T07:23:33.754Z,77.60
2022-11-08T07:26:09.006Z,77.45
2022-11-08T07:28:36.746Z,77.57
2022-11-08T07:31:07.795Z,77.63
2022-11-08T07:33:38.108Z,77.62
2022-11-08T07:36:06.075Z,77.79
2022-11-08T07:38:34.037Z,77.70
2022-11-08T07:41:04.442Z,77.67
2022-11-08T07:43:32.927Z,77.84
2022-11-08T07:46:04.065Z,77.84
2022-11-08T07:48:31.920Z,77.84
2022-11-08T07:51:01.946Z,77.84
2022-11-08T07:53:30.837Z,77.91
2022-11-08T07:55:58.810Z,77.88
2022-11-08T07:58:28.750Z,77.99
2022-11-08T08:01:03.468Z,77.97
2022-11-08T08:03:33.784Z,77.97
2022-11-08T08:06:03.788Z,77.98
2022-11-08T08:08:34.330Z,77.94
2022-11-08T08:11:05.287Z,77.99
2022-11-08T08:13:33.297Z,77.84
2022-11-08T08:16:03.547Z,77.89
2022-11-08T08:18:31.563Z,78.01
2022-11-08T08:21:01.940Z,77.92
2022-11-08T08:23:29.940Z,77.92
2022-11-08T08:25:57.920Z,77.96
2022-11-08T08:28:25.931Z,77.94
2022-11-08T08:30:53.892Z,77.93
2022-11-08T08:33:34.209Z,77.61
2022-11-08T08:36:04.819Z,77.87
2022-11-08T08:38:41.403Z,77.78
2022-11-08T08:41:13.291Z,77.95
2022-11-08T08:43:41.306Z,78.09
2022-11-08T08:46:11.369Z,78.10
2022-11-08T08:48:39.053Z,77.93
2022-11-08T08:51:09.695Z,78.01
2022-11-08T08:53:37.421Z,77.89
2022-11-08T08:56:08.415Z,77.90
2022-11-08T08:58:36.600Z,77.56
2022-11-08T09:04:06.600Z,76.48
2022-11-08T09:06:34.446Z,77.02
2022-11-08T09:09:04.469Z,76.68
2022-11-08T09:11:32.399Z,76.29
2022-11-08T09:14:00.123Z,74.88
2022-11-08T09:16:28.072Z,75.26
2022-11-08T09:18:56.023Z,75.51
2022-11-08T09:21:24.061Z,75.30
2022-11-08T09:23:52.057Z,75.90
2022-11-08T09:26:19.770Z,76.00
2022-11-08T09:28:47.478Z,76.12
2022-11-08T09:31:17.703Z,76.04
2022-11-08T09:33:49.588Z,75.88
2022-11-08T09:36:19.638Z,75.97
2022-11-08T09:38:47.342Z,75.19
2022-11-08T09:41:43.632Z,75.36
2022-11-08T09:44:27.576Z,75.44
2022-11-08T09:47:05.077Z,75.46
2022-11-08T09:50:05.549Z,75.33
2022-11-08T09:52:35.933Z,75.18
2022-11-08T09:55:38.413Z,74.92
2022-11-08T09:58:19.831Z,73.95
2022-11-08T10:00:53.009Z,74.35
2022-11-08T10:03:25.025Z,73.61
2022-11-08T10:05:58.765Z,72.78
2022-11-08T10:08:42.972Z,73.15
2022-11-08T10:11:28.458Z,73.29
2022-11-08T10:14:34.102Z,73.33
2022-11-08T10:17:25.244Z,72.82
2022-11-08T10:20:21.272Z,73.23
2022-11-08T10:23:10.412Z,73.06
2022-11-08T10:26:00.006Z,72.19
2022-11-08T10:28:43.375Z,71.76
2022-11-08T10:31:18.737Z,72.23
2022-11-08T10:33:59.439Z,72.40
2022-11-08T10:36:50.035Z,72.57
2022-11-08T10:39:30.394Z,72.38
2022-11-08T10:42:18.039Z,72.48
2022-11-08T10:44:48.348Z,71.92
2022-11-08T10:47:33.271Z,71.75
2022-11-08T10:50:04.460Z,71.07
2022-11-08T10:52:46.866Z,71.52
2022-11-08T10:55:40.470Z,71.60
2022-11-08T10:58:34.070Z,71.33
2022-11-08T11:01:14.374Z,71.07
2022-11-08T11:03:44.364Z,71.04
2022-11-08T11:06:21.416Z,70.70
2022-11-08T11:09:02.024Z,71.05
2022-11-08T11:11:33.022Z,71.05
2022-11-08T11:14:16.586Z,70.67
2022-11-08T11:16:58.470Z,70.71
2022-11-08T11:19:29.518Z,70.55
2022-11-08T11:22:12.119Z,70.05
2022-11-08T11:24:51.639Z,69.79
2022-11-08T11:27:41.799Z,69.66
2022-11-08T11:30:12.859Z,69.88
2022-11-08T11:32:56.421Z,69.06
2022-11-08T11:35:38.343Z,69.71
2022-11-08T11:38:20.146Z,69.36
2022-11-08T11:40:53.209Z,69.28
2022-11-08T11:43:36.049Z,69.09
2022-11-08T11:46:42.016Z,69.36
2022-11-08T11:49:22.255Z,68.90
2022-11-08T11:51:55.872Z,68.88
2022-11-08T11:54:35.910Z,68.47
2022-11-08T11:57:41.910Z,68.92
2022-11-08T12:00:15.795Z,68.53
2022-11-08T12:03:02.284Z,68.79
2022-11-08T12:06:01.616Z,68.08
2022-11-08T12:08:38.531Z,68.02
2022-11-08T12:11:50.150Z,68.14
2022-11-08T12:14:25.081Z,68.20
2022-11-08T12:17:41.078Z,67.85
2022-11-08T12:20:31.112Z,68.03
2022-11-08T12:23:11.174Z,67.97
2022-11-08T12:26:07.384Z,67.78
2022-11-08T12:28:52.919Z,67.66
2022-11-08T12:31:35.814Z,67.72
2022-11-08T12:34:38.577Z,67.46
2022-11-08T12:37:31.182Z,67.13
2022-11-08T12:39:58.855Z,67.54
2022-11-08T12:42:44.501Z,67.14
2022-11-08T12:45:36.043Z,67.13
2022-11-08T12:48:23.081Z,66.77
2022-11-08T12:51:26.325Z,66.77
2022-11-08T12:54:15.411Z,66.74
2022-11-08T12:56:48.513Z,66.60
2022-11-08T12:59:45.002Z,66.82
2022-11-08T13:02:26.832Z,66.01
2022-11-08T13:05:11.514Z,66.27
2022-11-08T13:08:14.698Z,66.13
2022-11-08T13:11:03.059Z,66.27
2022-11-08T13:13:51.027Z,65.99
2022-11-08T13:16:25.896Z,65.95
2022-11-08T13:18:58.207Z,66.04
2022-11-08T13:21:26.149Z,66.07
2022-11-08T13:24:06.683Z,66.12
2022-11-08T13:26:46.960Z,65.89
2022-11-08T13:29:27.551Z,65.91
2022-11-08T13:32:01.126Z,66.00
2022-11-08T13:34:52.735Z,65.80
2022-11-08T13:37:58.661Z,65.87
2022-11-08T13:40:40.709Z,65.84
2022-11-08T13:43:28.188Z,65.58
2022-11-08T13:46:17.476Z,65.52
2022-11-08T13:49:16.186Z,65.14
2022-11-08T13:51:46.862Z,65.33
2022-11-08T13:54:23.776Z,65.52
2022-11-08T13:56:58.573Z,65.52
2022-11-08T13:59:33.317Z,65.60
2022-11-08T14:02:15.250Z,65.47
2022-11-08T14:04:46.083Z,65.37
2022-11-08T14:07:44.158Z,65.34
2022-11-08T14:10:34.533Z,65.23
2022-11-08T14:13:11.579Z,65.15
2022-11-08T14:15:56.194Z,65.03
2022-11-08T14:18:35.154Z,65.15
2022-11-08T14:21:06.921Z,64.92
2022-11-08T14:23:42.220Z,65.06
2022-11-08T14:26:23.652Z,65.18
2022-11-08T14:28:54.248Z,65.20
2022-11-08T14:31:28.500Z,64.99
2022-11-08T14:33:59.281Z,64.96
2022-11-08T14:36:31.798Z,64.80
2022-11-08T14:39:12.418Z,64.61
2022-11-08T14:41:48.058Z,64.64
2022-11-08T14:44:19.518Z,64.83
2022-11-08T14:46:50.048Z,64.89
2022-11-08T14:49:33.948Z,64.86
2022-11-08T14:52:07.805Z,64.82
2022-11-08T14:54:44.028Z,64.97
2022-11-08T14:57:35.630Z,64.90
2022-11-08T15:00:12.526Z,64.99
2022-11-08T15:02:48.829Z,64.98
2022-11-08T15:05:42.656Z,65.00
2022-11-08T15:08:35.085Z,64.92
2022-11-08T15:11:06.283Z,64.96
2022-11-08T15:13:50.638Z,64.87
2022-11-08T15:16:18.490Z,64.80
2022-11-08T15:18:51.898Z,64.76
2022-11-08T15:21:33.610Z,64.95
2022-11-08T15:24:12.982Z,64.93
2022-11-08T15:27:19.135Z,65.00
2022-11-08T15:30:01.702Z,64.91
2022-11-08T15:32:37.399Z,64.96
2022-11-08T15:35:22.415Z,64.94
2022-11-08T15:38:01.241Z,64.99
2022-11-08T15:40:38.013Z,65.03
2022-11-08T15:43:07.929Z,65.05
2022-11-08T15:45:37.984Z,65.01
2022-11-08T15:48:08.686Z,65.11
2022-11-08T15:50:41.048Z,65.25
2022-11-08T15:53:11.485Z,65.18
2022-11-08T15:55:57.057Z,65.22
2022-11-08T15:58:33.319Z,65.22
2022-11-08T16:01:04.973Z,65.07
2022-11-08T16:03:36.359Z,65.13
2022-11-08T16:06:04.393Z,65.27
2022-11-08T16:08:32.157Z,65.32
2022-11-08T16:11:03.003Z,65.41
2022-11-08T16:13:37.006Z,65.41
2022-11-08T16:16:13.293Z,65.54
2022-11-08T16:18:43.596Z,65.55
2022-11-08T16:21:14.463Z,65.66
2022-11-08T16:23:42.798Z,65.60
2022-11-08T16:26:18.089Z,65.61
2022-11-08T16:28:48.161Z,65.61
2022-11-08T16:31:18.979Z,65.68
2022-11-08T16:33:49.937Z,65.87
2022-11-08T16:36:27.925Z,65.90
2022-11-08T16:38:58.071Z,66.04
2022-11-08T16:41:26.642Z,66.03
2022-11-08T16:43:57.273Z,65.89
2022-11-08T16:46:25.239Z,66.09
2022-11-08T16:48:59.239Z,66.04
2022-11-08T16:51:30.543Z,66.17
2022-11-08T16:53:58.308Z,66.15
2022-11-08T16:56:26.272Z,66.37
2022-11-08T16:58:54.044Z,66.23
2022-11-08T17:01:29.507Z,66.31
2022-11-08T17:03:57.486Z,66.61
2022-11-08T17:06:25.611Z,66.50
2022-11-08T17:08:53.474Z,66.50
2022-11-08T17:11:25.202Z,66.63
2022-11-08T17:13:53.153Z,66.65
2022-11-08T17:16:21.244Z,66.60
2022-11-08T17:18:53.331Z,66.69
2022-11-08T17:24:21.205Z,66.91
2022-11-08T17:26:53.601Z,66.92
2022-11-08T17:29:21.518Z,67.08
2022-11-08T17:31:52.302Z,66.87
2022-11-08T17:34:20.105Z,67.03
2022-11-08T17:36:47.939Z,67.17
2022-11-08T17:39:15.966Z,67.11
2022-11-08T17:41:43.721Z,67.00
2022-11-08T17:44:14.670Z,67.15
2022-11-08T17:46:42.701Z,67.28
2022-11-08T17:49:10.770Z,67.25
2022-11-08T17:51:38.733Z,67.29
2022-11-08T17:54:06.481Z,67.42
2022-11-08T17:56:34.234Z,67.37
2022-11-08T17:59:04.275Z,67.41
2022-11-08T18:01:32.662Z,67.36
2022-11-08T18:04:01.232Z,67.36
2022-11-08T18:06:32.065Z,67.41
2022-11-08T18:08:59.871Z,67.51
2022-11-08T18:11:27.641Z,67.53
2022-11-08T18:13:58.479Z,67.63
2022-11-08T18:16:26.415Z,67.67
2022-11-08T18:18:54.213Z,67.73
2022-11-08T18:21:22.131Z,67.78
2022-11-08T18:23:52.860Z,67.86
2022-11-08T18:26:20.666Z,68.01
2022-11-08T18:28:51.472Z,67.87
2022-11-08T18:31:23.176Z,68.05
2022-11-08T18:33:50.886Z,67.89
2022-11-08T18:36:27.107Z,68.16
2022-11-08T18:39:01.261Z,68.07
2022-11-08T18:41:33.394Z,68.14
2022-11-08T18:44:05.969Z,68.18
2022-11-08T18:46:43.144Z,68.20
2022-11-08T18:49:13.889Z,68.32
2022-11-08T18:51:41.713Z,68.43
2022-11-08T18:54:09.496Z,68.65
2022-11-08T18:56:37.466Z,68.38
2022-11-08T18:59:05.756Z,68.62
2022-11-08T19:01:33.603Z,68.85
2022-11-08T19:04:04.270Z,69.28
2022-11-08T19:06:32.031Z,69.13
2022-11-08T19:08:59.819Z,69.11
2022-11-08T19:11:30.587Z,68.81
2022-11-08T19:14:02.202Z,69.01
2022-11-08T19:16:32.685Z,68.94
2022-11-08T19:19:03.082Z,69.00
2022-11-08T19:21:35.505Z,68.95
2022-11-08T19:24:10.700Z,69.09
2022-11-08T19:26:39.463Z,69.13
2022-11-08T19:29:10.778Z,69.28
2022-11-08T19:31:39.131Z,69.18
2022-11-08T19:34:07.074Z,69.23
2022-11-08T19:36:43.590Z,69.25
2022-11-08T19:39:14.565Z,69.38
2022-11-08T19:41:45.378Z,69.31
2022-11-08T19:44:13.143Z,69.60
2022-11-08T19:46:42.824Z,69.59
2022-11-08T19:49:12.436Z,69.60
2022-11-08T19:51:40.258Z,69.39
2022-11-08T19:54:12.723Z,69.46
2022-11-08T19:59:28.398Z,69.39
2022-11-08T20:01:56.323Z,69.59
2022-11-08T20:04:26.934Z,69.76
2022-11-08T20:06:54.837Z,69.74
2022-11-08T20:09:27.359Z,69.66
2022-11-08T20:12:00.406Z,69.69
2022-11-08T20:14:28.142Z,70.00
2022-11-08T20:16:55.939Z,69.94
2022-11-08T20:19:23.743Z,70.03
2022-11-08T20:21:57.147Z,70.03
2022-11-08T20:24:24.891Z,70.18
2022-11-08T20:26:52.609Z,70.14
2022-11-08T20:29:20.434Z,70.20
2022-11-08T20:31:53.352Z,70.18
2022-11-08T20:34:21.103Z,70.29
2022-11-08T20:36:51.937Z,70.19
2022-11-08T20:39:19.677Z,70.47
2022-11-08T20:41:47.672Z,70.34
2022-11-08T20:44:17.403Z,70.35
2022-11-08T20:46:45.141Z,70.31
2022-11-08T20:49:12.870Z,70.33
2022-11-08T20:51:40.640Z,70.43
2022-11-08T20:54:12.138Z,70.49
2022-11-08T20:56:39.866Z,70.64
2022-11-08T20:59:09.287Z,70.40
2022-11-08T21:01:40.425Z,70.62
2022-11-08T21:04:12.314Z,70.66
2022-11-08T21:06:40.085Z,70.80
2022-11-08T21:09:32.521Z,70.85
2022-11-08T21:11:58.464Z,70.72
2022-11-08T21:14:26.300Z,70.74
2022-11-08T21:19:41.973Z,70.74
2022-11-08T21:22:15.375Z,70.74
2022-11-08T21:24:47.941Z,70.68
2022-11-08T21:27:17.880Z,70.96
2022-11-08T21:29:45.713Z,70.88
2022-11-08T21:32:14.041Z,70.71
2022-11-08T21:34:47.911Z,70.99
2022-11-08T21:37:16.075Z,71.11
2022-11-08T21:39:44.217Z,70.85
2022-11-08T21:42:12.365Z,71.02
2022-11-08T21:44:42.890Z,71.33
2022-11-08T21:47:14.064Z,71.07
2022-11-08T21:49:42.009Z,71.22
2022-11-08T21:52:10.132Z,71.07
2022-11-08T21:54:42.030Z,71.20
2022-11-08T21:57:10.177Z,71.07
2022-11-08T21:59:38.548Z,71.23
2022-11-08T22:02:10.386Z,71.29
2022-11-08T22:04:38.350Z,71.29
2022-11-08T22:07:06.565Z,71.12
2022-11-08T22:09:36.448Z,71.46
2022-11-08T22:12:04.554Z,71.41
2022-11-08T22:14:32.642Z,71.50
2022-11-08T22:17:00.833Z,71.40
2022-11-08T22:19:29.023Z,71.45
2022-11-08T22:22:00.023Z,71.51
2022-11-08T22:24:28.176Z,71.57
2022-11-08T22:26:58.171Z,71.66
2022-11-08T22:29:26.348Z,71.60
2022-11-08T22:31:58.375Z,71.73
2022-11-08T22:34:26.389Z,71.76
2022-11-08T22:36:54.441Z,71.67
2022-11-08T22:39:26.711Z,71.48
2022-11-08T22:41:57.800Z,71.54
2022-11-08T22:44:26.218Z,71.83
2022-11-08T22:46:54.135Z,71.83
2022-11-08T22:49:22.296Z,71.89
2022-11-08T22:51:50.184Z,71.99
2022-11-08T22:54:18.123Z,71.88
2022-11-08T22:56:46.078Z,71.88
2022-11-08T22:59:17.774Z,72.11
2022-11-08T23:01:46.007Z,72.04
2022-11-08T23:04:17.905Z,71.83
2022-11-08T23:06:45.895Z,72.18
2022-11-08T23:09:14.003Z,72.17
2022-11-08T23:12:00.424Z,72.65
2022-11-08T23:14:47.277Z,72.27
2022-11-08T23:17:15.390Z,72.37
2022-11-08T23:20:05.676Z,72.27
2022-11-08T23:22:52.475Z,72.29
2022-11-08T23:25:23.884Z,72.27
2022-11-08T23:28:10.674Z,72.37
2022-11-08T23:31:01.973Z,72.41
2022-11-08T23:33:29.810Z,72.27
2022-11-08T23:36:14.317Z,72.23
2022-11-08T23:38:44.631Z,72.64
2022-11-08T23:41:31.900Z,72.41
2022-11-08T23:44:18.601Z,72.50
2022-11-08T23:46:46.474Z,72.48
2022-11-08T23:49:14.308Z,72.37
2022-11-08T23:51:42.042Z,72.49
2022-11-08T23:54:10.148Z,72.43
2022-11-08T23:56:38.064Z,72.64
2022-11-08T23:59:10.865Z,72.56
